sensor_id;sensor_type;location;lat;lon;timestamp;pressure;altitude;pressure_sealevel;temperature;humidity
4617;BME280;2321;42.704;23.384;2023-11-19T00:01:33;95386.59;;;3.98;100.00
4617;BME280;2321;42.704;23.384;2023-11-19T00:03:59;95381.31;;;3.98;100.00
4617;BME280;2321;42.704;23.384;2023-11-19T00:06:26;95385.09;;;3.95;100.00
4617;BME280;2321;42.704;23.384;2023-11-19T00:08:53;95383.72;;;3.91;100.00
4617;BME280;2321;42.704;23.384;2023-11-19T00:11:19;95386.19;;;3.92;100.00
4617;BME280;2321;42.704;23.384;2023-11-19T00:13:46;95390.78;;;3.90;100.00
4617;BME280;2321;42.704;23.384;2023-11-19T00:16:13;95379.59;;;3.88;100.00
4617;BME280;2321;42.704;23.384;2023-11-19T00:18:42;95384.19;;;3.86;100.00
4617;BME280;2321;42.704;23.384;2023-11-19T00:21:09;95381.38;;;3.88;100.00
4617;BME280;2321;42.704;23.384;2023-11-19T00:23:36;95384.69;;;3.90;100.00
4617;BME280;2321;42.704;23.384;2023-11-19T00:26:03;95400.50;;;3.90;100.00
4617;BME280;2321;42.704;23.384;2023-11-19T00:28:31;95406.06;;;3.87;100.00
4617;BME280;2321;42.704;23.384;2023-11-19T00:30:58;95392.22;;;3.85;100.00
4617;BME280;2321;42.704;23.384;2023-11-19T00:33:24;95399.28;;;3.84;100.00
4617;BME280;2321;42.704;23.384;2023-11-19T00:35:52;95390.06;;;3.80;100.00
4617;BME280;2321;42.704;23.384;2023-11-19T00:38:19;95390.44;;;3.85;100.00
4617;BME280;2321;42.704;23.384;2023-11-19T00:40:46;95402.47;;;3.88;100.00
4617;BME280;2321;42.704;23.384;2023-11-19T00:43:13;95393.91;;;3.86;100.00
4617;BME280;2321;42.704;23.384;2023-11-19T00:45:39;95391.41;;;3.84;100.00
4617;BME280;2321;42.704;23.384;2023-11-19T00:48:06;95408.88;;;3.85;100.00
4617;BME280;2321;42.704;23.384;2023-11-19T00:50:33;95408.50;;;3.80;100.00
4617;BME280;2321;42.704;23.384;2023-11-19T00:53:01;95402.09;;;3.83;100.00
4617;BME280;2321;42.704;23.384;2023-11-19T00:55:28;95399.75;;;3.79;100.00
4617;BME280;2321;42.704;23.384;2023-11-19T00:57:55;95400.59;;;3.80;100.00
4617;BME280;2321;42.704;23.384;2023-11-19T01:00:23;95414.72;;;3.79;100.00
4617;BME280;2321;42.704;23.384;2023-11-19T01:02:52;95401.84;;;3.76;100.00
4617;BME280;2321;42.704;23.384;2023-11-19T01:05:19;95409.75;;;3.76;100.00
4617;BME280;2321;42.704;23.384;2023-11-19T01:07:47;95421.97;;;3.77;100.00
4617;BME280;2321;42.704;23.384;2023-11-19T01:10:15;95412.41;;;3.76;100.00
4617;BME280;2321;42.704;23.384;2023-11-19T01:12:43;95415.31;;;3.73;100.00
4617;BME280;2321;42.704;23.384;2023-11-19T01:15:10;95417.28;;;3.70;100.00
4617;BME280;2321;42.704;23.384;2023-11-19T01:17:38;95437.34;;;3.72;100.00
4617;BME280;2321;42.704;23.384;2023-11-19T01:20:05;95417.28;;;3.70;100.00
4617;BME280;2321;42.704;23.384;2023-11-19T01:22:32;95405.09;;;3.69;100.00
4617;BME280;2321;42.704;23.384;2023-11-19T01:24:59;95410.34;;;3.69;100.00
4617;BME280;2321;42.704;23.384;2023-11-19T01:27:27;95399.81;;;3.69;100.00
4617;BME280;2321;42.704;23.384;2023-11-19T01:29:54;95427.13;;;3.68;100.00
4617;BME280;2321;42.704;23.384;2023-11-19T01:32:20;95419.91;;;3.70;100.00
4617;BME280;2321;42.704;23.384;2023-11-19T01:34:49;95425.19;;;3.70;100.00
4617;BME280;2321;42.704;23.384;2023-11-19T01:37:15;95421.72;;;3.70;100.00
4617;BME280;2321;42.704;23.384;2023-11-19T01:39:43;95425.19;;;3.70;100.00
4617;BME280;2321;42.704;23.384;2023-11-19T01:42:10;95420.75;;;3.71;100.00
4617;BME280;2321;42.704;23.384;2023-11-19T01:44:38;95426.81;;;3.72;100.00
4617;BME280;2321;42.704;23.384;2023-11-19T01:47:05;95427.13;;;3.68;100.00
4617;BME280;2321;42.704;23.384;2023-11-19T01:49:32;95439.31;;;3.69;100.00
4617;BME280;2321;42.704;23.384;2023-11-19T01:51:59;95431.59;;;3.68;100.00
4617;BME280;2321;42.704;23.384;2023-11-19T01:54:26;95439.19;;;3.71;100.00
4617;BME280;2321;42.704;23.384;2023-11-19T01:56:54;95444.22;;;3.64;100.00
4617;BME280;2321;42.704;23.384;2023-11-19T01:59:23;95441.72;;;3.63;100.00
4617;BME280;2321;42.704;23.384;2023-11-19T02:01:53;95440.75;;;3.64;100.00
4617;BME280;2321;42.704;23.384;2023-11-19T02:04:20;95435.47;;;3.64;100.00
4617;BME280;2321;42.704;23.384;2023-11-19T02:06:47;95443.91;;;3.67;100.00
4617;BME280;2321;42.704;23.384;2023-11-19T02:09:15;95433.50;;;3.66;100.00
4617;BME280;2321;42.704;23.384;2023-11-19T02:11:44;95437.94;;;3.65;100.00
4617;BME280;2321;42.704;23.384;2023-11-19T02:14:14;95430.75;;;3.67;100.00
4617;BME280;2321;42.704;23.384;2023-11-19T02:16:41;95425.19;;;3.70;100.00
4617;BME280;2321;42.704;23.384;2023-11-19T02:19:09;95427.00;;;3.70;100.00
4617;BME280;2321;42.704;23.384;2023-11-19T02:21:36;95418.25;;;3.69;100.00
4617;BME280;2321;42.704;23.384;2023-11-19T02:24:03;95409.81;;;3.66;100.00
4617;BME280;2321;42.704;23.384;2023-11-19T02:26:36;95407.47;;;3.63;100.00
4617;BME280;2321;42.704;23.384;2023-11-19T02:29:05;95416.81;;;3.57;100.00
4617;BME280;2321;42.704;23.384;2023-11-19T02:31:33;95416.97;;;3.55;100.00
4617;BME280;2321;42.704;23.384;2023-11-19T02:34:00;95406.84;;;3.51;100.00
4617;BME280;2321;42.704;23.384;2023-11-19T02:36:27;95408.94;;;3.47;100.00
4617;BME280;2321;42.704;23.384;2023-11-19T02:38:54;95391.13;;;3.41;100.00
4617;BME280;2321;42.704;23.384;2023-11-19T02:41:21;95397.50;;;3.38;100.00
4617;BME280;2321;42.704;23.384;2023-11-19T02:43:48;95401.56;;;3.32;100.00
4617;BME280;2321;42.704;23.384;2023-11-19T02:46:16;95397.56;;;3.28;100.00
4617;BME280;2321;42.704;23.384;2023-11-19T02:48:44;95398.53;;;3.27;100.00
4617;BME280;2321;42.704;23.384;2023-11-19T02:51:11;95407.56;;;3.24;100.00
4617;BME280;2321;42.704;23.384;2023-11-19T02:53:38;95406.06;;;3.22;100.00
4617;BME280;2321;42.704;23.384;2023-11-19T02:56:05;95409.50;;;3.22;100.00
4617;BME280;2321;42.704;23.384;2023-11-19T02:58:34;95408.81;;;3.20;100.00
4617;BME280;2321;42.704;23.384;2023-11-19T03:01:01;95402.72;;;3.20;100.00
4617;BME280;2321;42.704;23.384;2023-11-19T03:03:39;95405.22;;;3.21;100.00
4617;BME280;2321;42.704;23.384;2023-11-19T03:06:07;95404.53;;;3.19;100.00
4617;BME280;2321;42.704;23.384;2023-11-19T03:08:35;95408.97;;;3.19;100.00
4617;BME280;2321;42.704;23.384;2023-11-19T03:11:02;95408.28;;;3.16;100.00
4617;BME280;2321;42.704;23.384;2023-11-19T03:13:30;95409.09;;;3.17;100.00
4617;BME280;2321;42.704;23.384;2023-11-19T03:15:56;95426.69;;;3.16;100.00
4617;BME280;2321;42.704;23.384;2023-11-19T03:18:23;95428.19;;;3.19;100.00
4617;BME280;2321;42.704;23.384;2023-11-19T03:20:51;95415.75;;;3.21;100.00
4617;BME280;2321;42.704;23.384;2023-11-19T03:23:18;95420.31;;;3.19;100.00
4617;BME280;2321;42.704;23.384;2023-11-19T03:25:45;95421.97;;;3.20;100.00
4617;BME280;2321;42.704;23.384;2023-11-19T03:28:11;95415.75;;;3.21;100.00
4617;BME280;2321;42.704;23.384;2023-11-19T03:30:38;95420.00;;;3.22;100.00
4617;BME280;2321;42.704;23.384;2023-11-19T03:33:05;95421.97;;;3.20;100.00
4617;BME280;2321;42.704;23.384;2023-11-19T03:35:32;95417.66;;;3.19;100.00
4617;BME280;2321;42.704;23.384;2023-11-19T03:38:00;95418.66;;;3.18;100.00
4617;BME280;2321;42.704;23.384;2023-11-19T03:40:27;95423.78;;;3.20;100.00
4617;BME280;2321;42.704;23.384;2023-11-19T03:42:55;95431.66;;;3.20;100.00
4617;BME280;2321;42.704;23.384;2023-11-19T03:45:22;95430.41;;;3.24;100.00
4617;BME280;2321;42.704;23.384;2023-11-19T03:47:48;95435.69;;;3.24;100.00
4617;BME280;2321;42.704;23.384;2023-11-19T03:50:15;95450.63;;;3.23;100.00
4617;BME280;2321;42.704;23.384;2023-11-19T03:52:43;95461.03;;;3.25;100.00
4617;BME280;2321;42.704;23.384;2023-11-19T03:55:11;95448.00;;;3.23;100.00
4617;BME280;2321;42.704;23.384;2023-11-19T03:57:38;95446.88;;;3.26;100.00
4617;BME280;2321;42.704;23.384;2023-11-19T04:00:05;95456.72;;;3.24;100.00
4617;BME280;2321;42.704;23.384;2023-11-19T04:02:35;95452.59;;;3.21;100.00
4617;BME280;2321;42.704;23.384;2023-11-19T04:05:01;95437.75;;;3.20;100.00
4617;BME280;2321;42.704;23.384;2023-11-19T04:07:28;95456.06;;;3.22;100.00
4617;BME280;2321;42.704;23.384;2023-11-19T04:09:55;95456.84;;;3.22;100.00
4617;BME280;2321;42.704;23.384;2023-11-19T04:12:23;95464.63;;;3.24;100.00
4617;BME280;2321;42.704;23.384;2023-11-19T04:14:50;95477.63;;;3.25;100.00
4617;BME280;2321;42.704;23.384;2023-11-19T04:17:16;95482.88;;;3.25;100.00
4617;BME280;2321;42.704;23.384;2023-11-19T04:19:43;95469.72;;;3.25;100.00
4617;BME280;2321;42.704;23.384;2023-11-19T04:22:10;95472.06;;;3.29;100.00
4617;BME280;2321;42.704;23.384;2023-11-19T04:24:37;95461.81;;;3.25;100.00
4617;BME280;2321;42.704;23.384;2023-11-19T04:27:04;95446.88;;;3.26;100.00
4617;BME280;2321;42.704;23.384;2023-11-19T04:29:33;95462.66;;;3.26;100.00
4617;BME280;2321;42.704;23.384;2023-11-19T04:31:59;95472.50;;;3.24;100.00
4617;BME280;2321;42.704;23.384;2023-11-19T04:34:26;95465.88;;;3.20;100.00
4617;BME280;2321;42.704;23.384;2023-11-19T04:36:53;95466.03;;;3.18;100.00
4617;BME280;2321;42.704;23.384;2023-11-19T04:39:19;95471.56;;;3.15;100.00
4617;BME280;2321;42.704;23.384;2023-11-19T04:41:48;95483.91;;;3.14;100.00
4617;BME280;2321;42.704;23.384;2023-11-19T04:44:14;95472.94;;;3.19;100.00
4617;BME280;2321;42.704;23.384;2023-11-19T04:46:43;95487.22;;;3.16;100.00
4617;BME280;2321;42.704;23.384;2023-11-19T04:49:10;95492.47;;;3.16;100.00
4617;BME280;2321;42.704;23.384;2023-11-19T04:51:40;95504.78;;;3.16;100.00
4617;BME280;2321;42.704;23.384;2023-11-19T04:54:07;95497.72;;;3.16;100.00
4617;BME280;2321;42.704;23.384;2023-11-19T04:56:35;95498.44;;;3.19;100.00
4617;BME280;2321;42.704;23.384;2023-11-19T04:59:02;95492.47;;;3.16;100.00
4617;BME280;2321;42.704;23.384;2023-11-19T05:01:28;95501.19;;;3.17;100.00
4617;BME280;2321;42.704;23.384;2023-11-19T05:03:57;95500.06;;;3.20;100.00
4617;BME280;2321;42.704;23.384;2023-11-19T05:06:26;95508.41;;;3.15;100.00
4617;BME280;2321;42.704;23.384;2023-11-19T05:08:52;95515.31;;;3.16;100.00
4617;BME280;2321;42.704;23.384;2023-11-19T05:11:19;95525.03;;;3.15;100.00
4617;BME280;2321;42.704;23.384;2023-11-19T05:13:46;95511.72;;;3.17;100.00
4617;BME280;2321;42.704;23.384;2023-11-19T05:16:12;95521.56;;;3.15;100.00
4617;BME280;2321;42.704;23.384;2023-11-19T05:18:40;95525.31;;;3.12;100.00
4617;BME280;2321;42.704;23.384;2023-11-19T05:21:08;95511.31;;;3.12;100.00
4617;BME280;2321;42.704;23.384;2023-11-19T05:23:35;95526.13;;;3.13;100.00
4617;BME280;2321;42.704;23.384;2023-11-19T05:26:02;95512.28;;;3.11;100.00
4617;BME280;2321;42.704;23.384;2023-11-19T05:28:28;95510.63;;;3.10;100.00
4617;BME280;2321;42.704;23.384;2023-11-19T05:30:55;95517.84;;;3.08;100.00
4617;BME280;2321;42.704;23.384;2023-11-19T05:33:22;95506.75;;;3.04;100.00
4617;BME280;2321;42.704;23.384;2023-11-19T05:35:48;95506.09;;;3.02;100.00
4617;BME280;2321;42.704;23.384;2023-11-19T05:38:16;95523.66;;;3.01;100.00
4617;BME280;2321;42.704;23.384;2023-11-19T05:40:43;95513.56;;;2.97;100.00
4617;BME280;2321;42.704;23.384;2023-11-19T05:43:10;95519.41;;;3.00;100.00
4617;BME280;2321;42.704;23.384;2023-11-19T05:45:36;95524.78;;;2.99;100.00
4617;BME280;2321;42.704;23.384;2023-11-19T05:48:04;95517.03;;;2.97;100.00
4617;BME280;2321;42.704;23.384;2023-11-19T05:50:30;95531.84;;;2.98;100.00
4617;BME280;2321;42.704;23.384;2023-11-19T05:52:57;95534.91;;;3.03;100.00
4617;BME280;2321;42.704;23.384;2023-11-19T05:55:25;95526.84;;;3.05;100.00
4617;BME280;2321;42.704;23.384;2023-11-19T05:57:53;95535.41;;;3.07;100.00
4617;BME280;2321;42.704;23.384;2023-11-19T06:00:20;95533.63;;;3.08;100.00
4617;BME280;2321;42.704;23.384;2023-11-19T06:02:46;95540.84;;;3.05;100.00
4617;BME280;2321;42.704;23.384;2023-11-19T06:05:13;95548.72;;;3.05;100.00
4617;BME280;2321;42.704;23.384;2023-11-19T06:07:40;95552.31;;;3.04;100.00
4617;BME280;2321;42.704;23.384;2023-11-19T06:10:06;95556.91;;;3.02;100.00
4617;BME280;2321;42.704;23.384;2023-11-19T06:12:36;95568.38;;;3.01;100.00
4617;BME280;2321;42.704;23.384;2023-11-19T06:15:06;95563.13;;;3.01;100.00
4617;BME280;2321;42.704;23.384;2023-11-19T06:17:33;95559.38;;;3.04;100.00
4617;BME280;2321;42.704;23.384;2023-11-19T06:20:00;95566.72;;;3.10;100.00
4617;BME280;2321;42.704;23.384;2023-11-19T06:22:29;95556.91;;;3.12;100.00
4617;BME280;2321;42.704;23.384;2023-11-19T06:24:56;95549.81;;;3.13;100.00
4617;BME280;2321;42.704;23.384;2023-11-19T06:27:25;95549.13;;;3.11;100.00
4617;BME280;2321;42.704;23.384;2023-11-19T06:29:53;95546.09;;;3.15;100.00
4617;BME280;2321;42.704;23.384;2023-11-19T06:32:20;95556.06;;;3.12;100.00
4617;BME280;2321;42.704;23.384;2023-11-19T06:34:47;95559.38;;;3.14;100.00
4617;BME280;2321;42.704;23.384;2023-11-19T06:37:14;95538.47;;;3.12;100.00
4617;BME280;2321;42.704;23.384;2023-11-19T06:39:40;95554.25;;;3.12;100.00
4617;BME280;2321;42.704;23.384;2023-11-19T06:42:07;95565.75;;;3.11;100.00
4617;BME280;2321;42.704;23.384;2023-11-19T06:44:33;95556.19;;;3.10;100.00
4617;BME280;2321;42.704;23.384;2023-11-19T06:47:02;95557.03;;;3.11;100.00
4617;BME280;2321;42.704;23.384;2023-11-19T06:49:28;95575.03;;;3.15;100.00
4617;BME280;2321;42.704;23.384;2023-11-19T06:51:55;95568.66;;;3.18;100.00
4617;BME280;2321;42.704;23.384;2023-11-19T06:54:22;95556.31;;;3.19;100.00
4617;BME280;2321;42.704;23.384;2023-11-19T06:56:48;95555.88;;;3.23;100.00
4617;BME280;2321;42.704;23.384;2023-11-19T06:59:15;95560.59;;;3.30;100.00
4617;BME280;2321;42.704;23.384;2023-11-19T07:01:42;95564.19;;;3.29;100.00
4617;BME280;2321;42.704;23.384;2023-11-19T07:04:11;95573.63;;;3.21;100.00
4617;BME280;2321;42.704;23.384;2023-11-19T07:06:38;95571.28;;;3.18;100.00
4617;BME280;2321;42.704;23.384;2023-11-19T07:09:06;95574.31;;;3.13;100.00
4617;BME280;2321;42.704;23.384;2023-11-19T07:11:35;95581.09;;;3.16;100.00
4617;BME280;2321;42.704;23.384;2023-11-19T07:14:01;95556.22;;;3.00;100.00
4617;BME280;2321;42.704;23.384;2023-11-19T07:16:28;95575.03;;;3.15;100.00
4617;BME280;2321;42.704;23.384;2023-11-19T07:18:54;95593.28;;;3.17;100.00
4617;BME280;2321;42.704;23.384;2023-11-19T07:21:22;95595.38;;;3.13;100.00
4617;BME280;2321;42.704;23.384;2023-11-19T07:23:49;95589.97;;;3.15;100.00
4617;BME280;2321;42.704;23.384;2023-11-19T07:26:17;95589.56;;;3.10;100.00
4617;BME280;2321;42.704;23.384;2023-11-19T07:28:43;95602.03;;;3.08;100.00
4617;BME280;2321;42.704;23.384;2023-11-19T07:31:11;95603.97;;;3.05;100.00
4617;BME280;2321;42.704;23.384;2023-11-19T07:33:39;95605.09;;;3.03;100.00
4617;BME280;2321;42.704;23.384;2023-11-19T07:36:07;95618.94;;;3.05;100.00
4617;BME280;2321;42.704;23.384;2023-11-19T07:38:35;95623.06;;;3.08;100.00
4617;BME280;2321;42.704;23.384;2023-11-19T07:41:02;95615.88;;;3.10;100.00
4617;BME280;2321;42.704;23.384;2023-11-19T07:43:30;95623.75;;;3.10;100.00
4617;BME280;2321;42.704;23.384;2023-11-19T07:45:57;95631.94;;;3.16;100.00
4617;BME280;2321;42.704;23.384;2023-11-19T07:48:24;95612.25;;;3.21;100.00
4617;BME280;2321;42.704;23.384;2023-11-19T07:50:51;95602.00;;;3.28;100.00
4617;BME280;2321;42.704;23.384;2023-11-19T07:53:18;95626.38;;;3.30;100.00
4617;BME280;2321;42.704;23.384;2023-11-19T07:55:46;95631.94;;;3.26;100.00
4617;BME280;2321;42.704;23.384;2023-11-19T07:58:13;95615.69;;;3.31;100.00
4617;BME280;2321;42.704;23.384;2023-11-19T08:00:39;95620.56;;;3.36;100.00
4617;BME280;2321;42.704;23.384;2023-11-19T08:03:06;95620.13;;;3.41;100.00
4617;BME280;2321;42.704;23.384;2023-11-19T08:05:33;95626.88;;;3.53;100.00
4617;BME280;2321;42.704;23.384;2023-11-19T08:08:00;95637.00;;;3.58;100.00
4617;BME280;2321;42.704;23.384;2023-11-19T08:10:27;95623.56;;;3.61;100.00
4617;BME280;2321;42.704;23.384;2023-11-19T08:12:55;95631.28;;;3.73;100.00
4617;BME280;2321;42.704;23.384;2023-11-19T08:15:22;95636.38;;;3.84;100.00
4617;BME280;2321;42.704;23.384;2023-11-19T08:17:48;95653.38;;;4.00;100.00
4617;BME280;2321;42.704;23.384;2023-11-19T08:20:15;95643.50;;;4.02;100.00
4617;BME280;2321;42.704;23.384;2023-11-19T08:22:42;95648.91;;;4.10;100.00
4617;BME280;2321;42.704;23.384;2023-11-19T08:25:08;95646.94;;;4.12;100.00
4617;BME280;2321;42.704;23.384;2023-11-19T08:27:35;95650.16;;;4.06;100.00
4617;BME280;2321;42.704;23.384;2023-11-19T08:30:04;95663.66;;;3.93;100.00
4617;BME280;2321;42.704;23.384;2023-11-19T08:32:31;95653.00;;;3.85;100.00
4617;BME280;2321;42.704;23.384;2023-11-19T08:34:57;95671.75;;;3.72;100.00
4617;BME280;2321;42.704;23.384;2023-11-19T08:37:24;95654.31;;;3.61;100.00
4617;BME280;2321;42.704;23.384;2023-11-19T08:39:51;95665.13;;;3.57;100.00
4617;BME280;2321;42.704;23.384;2023-11-19T08:42:18;95677.75;;;3.54;100.00
4617;BME280;2321;42.704;23.384;2023-11-19T08:44:48;95673.59;;;3.51;100.00
4617;BME280;2321;42.704;23.384;2023-11-19T08:47:17;95663.06;;;3.51;100.00
4617;BME280;2321;42.704;23.384;2023-11-19T08:49:44;95663.91;;;3.52;100.00
4617;BME280;2321;42.704;23.384;2023-11-19T08:52:10;95665.03;;;3.49;100.00
4617;BME280;2321;42.704;23.384;2023-11-19T08:54:37;95659.59;;;3.41;100.00
4617;BME280;2321;42.704;23.384;2023-11-19T08:57:04;95682.78;;;3.37;100.00
4617;BME280;2321;42.704;23.384;2023-11-19T08:59:32;95671.97;;;3.40;100.00
4617;BME280;2321;42.704;23.384;2023-11-19T09:01:59;95659.31;;;3.44;100.00
4617;BME280;2321;42.704;23.384;2023-11-19T09:04:27;95652.81;;;3.48;100.00
4617;BME280;2321;42.704;23.384;2023-11-19T09:06:53;95645.31;;;3.53;100.00
4617;BME280;2321;42.704;23.384;2023-11-19T09:09:20;95642.16;;;3.50;100.00
4617;BME280;2321;42.704;23.384;2023-11-19T09:11:47;95649.47;;;3.56;100.00
4617;BME280;2321;42.704;23.384;2023-11-19T09:14:14;95635.16;;;3.68;100.00
4617;BME280;2321;42.704;23.384;2023-11-19T09:16:40;95633.19;;;3.80;100.00
4617;BME280;2321;42.704;23.384;2023-11-19T09:19:08;95628.56;;;3.92;100.00
4617;BME280;2321;42.704;23.384;2023-11-19T09:21:36;95640.88;;;4.02;100.00
4617;BME280;2321;42.704;23.384;2023-11-19T09:24:04;95657.31;;;4.14;99.29
4617;BME280;2321;42.704;23.384;2023-11-19T09:26:32;95649.97;;;4.18;98.11
4617;BME280;2321;42.704;23.384;2023-11-19T09:28:59;95674.63;;;4.27;97.67
4617;BME280;2321;42.704;23.384;2023-11-19T09:31:26;95672.41;;;4.32;96.00
4617;BME280;2321;42.704;23.384;2023-11-19T09:33:53;95666.03;;;4.24;95.01
4617;BME280;2321;42.704;23.384;2023-11-19T09:36:20;95659.00;;;4.15;95.20
4617;BME280;2321;42.704;23.384;2023-11-19T09:38:48;95646.13;;;4.02;94.94
4617;BME280;2321;42.704;23.384;2023-11-19T09:41:14;95628.88;;;3.89;96.74
4617;BME280;2321;42.704;23.384;2023-11-19T09:43:42;95629.28;;;3.85;98.17
4617;BME280;2321;42.704;23.384;2023-11-19T09:46:09;95619.44;;;3.87;99.18
4617;BME280;2321;42.704;23.384;2023-11-19T09:48:37;95619.97;;;3.90;97.25
4617;BME280;2321;42.704;23.384;2023-11-19T09:51:05;95605.16;;;3.89;96.64
4617;BME280;2321;42.704;23.384;2023-11-19T09:53:34;95587.03;;;3.86;96.55
4617;BME280;2321;42.704;23.384;2023-11-19T09:56:02;95588.66;;;3.87;95.88
4617;BME280;2321;42.704;23.384;2023-11-19T09:58:29;95594.75;;;3.88;97.04
4617;BME280;2321;42.704;23.384;2023-11-19T10:00:56;95601.53;;;3.90;98.03
4617;BME280;2321;42.704;23.384;2023-11-19T10:03:24;95598.50;;;3.95;96.88
4617;BME280;2321;42.704;23.384;2023-11-19T10:05:52;95591.94;;;3.99;96.22
4617;BME280;2321;42.704;23.384;2023-11-19T10:08:19;95595.56;;;3.98;95.08
4617;BME280;2321;42.704;23.384;2023-11-19T10:10:45;95587.13;;;3.95;95.90
4617;BME280;2321;42.704;23.384;2023-11-19T10:13:18;95590.28;;;3.98;97.06
4617;BME280;2321;42.704;23.384;2023-11-19T10:15:47;95587.59;;;4.08;97.50
4617;BME280;2321;42.704;23.384;2023-11-19T10:18:15;95591.97;;;4.18;95.24
4617;BME280;2321;42.704;23.384;2023-11-19T10:20:42;95594.63;;;4.18;94.85
4617;BME280;2321;42.704;23.384;2023-11-19T10:23:09;95601.56;;;4.19;94.94
4617;BME280;2321;42.704;23.384;2023-11-19T10:25:37;95605.41;;;4.24;95.49
4617;BME280;2321;42.704;23.384;2023-11-19T10:28:07;95600.50;;;4.30;95.17
4617;BME280;2321;42.704;23.384;2023-11-19T10:30:35;95597.44;;;4.34;93.32
4617;BME280;2321;42.704;23.384;2023-11-19T10:33:05;95586.25;;;4.32;92.80
4617;BME280;2321;42.704;23.384;2023-11-19T10:35:32;95572.34;;;4.30;92.61
4617;BME280;2321;42.704;23.384;2023-11-19T10:37:59;95569.88;;;4.29;92.64
4617;BME280;2321;42.704;23.384;2023-11-19T10:40:37;95579.59;;;4.28;93.30
4617;BME280;2321;42.704;23.384;2023-11-19T10:43:03;95586.97;;;4.24;93.38
4617;BME280;2321;42.704;23.384;2023-11-19T10:45:31;95590.56;;;4.23;93.19
4617;BME280;2321;42.704;23.384;2023-11-19T10:48:00;95590.56;;;4.23;94.99
4617;BME280;2321;42.704;23.384;2023-11-19T10:50:29;95588.03;;;4.32;94.43
4617;BME280;2321;42.704;23.384;2023-11-19T10:52:57;95585.53;;;4.30;92.95
4617;BME280;2321;42.704;23.384;2023-11-19T10:55:26;95591.94;;;4.28;94.15
4617;BME280;2321;42.704;23.384;2023-11-19T10:57:53;95585.28;;;4.23;91.98
4617;BME280;2321;42.704;23.384;2023-11-19T11:00:23;95584.25;;;4.16;93.26
4617;BME280;2321;42.704;23.384;2023-11-19T11:02:52;95574.66;;;4.15;93.04
4617;BME280;2321;42.704;23.384;2023-11-19T11:05:23;95577.16;;;4.17;93.02
4617;BME280;2321;42.704;23.384;2023-11-19T11:07:52;95574.66;;;4.15;94.26
4617;BME280;2321;42.704;23.384;2023-11-19T11:10:21;95569.94;;;4.19;92.14
4617;BME280;2321;42.704;23.384;2023-11-19T11:12:51;95553.28;;;4.18;93.93
4617;BME280;2321;42.704;23.384;2023-11-19T11:15:22;95569.47;;;4.23;93.94
4617;BME280;2321;42.704;23.384;2023-11-19T11:17:51;95558.56;;;4.18;92.85
4617;BME280;2321;42.704;23.384;2023-11-19T11:20:20;95542.91;;;4.17;94.86
4617;BME280;2321;42.704;23.384;2023-11-19T11:22:51;95553.66;;;4.23;95.32
4617;BME280;2321;42.704;23.384;2023-11-19T11:25:23;95555.03;;;4.28;94.52
4617;BME280;2321;42.704;23.384;2023-11-19T11:28:00;95560.53;;;4.34;94.67
4617;BME280;2321;42.704;23.384;2023-11-19T11:30:34;95557.63;;;4.38;93.75
4617;BME280;2321;42.704;23.384;2023-11-19T11:33:05;95564.16;;;4.33;92.11
4617;BME280;2321;42.704;23.384;2023-11-19T11:35:37;95576.00;;;4.29;92.06
4617;BME280;2321;42.704;23.384;2023-11-19T11:38:10;95557.84;;;4.26;92.62
4617;BME280;2321;42.704;23.384;2023-11-19T11:40:37;95558.50;;;4.28;93.18
4617;BME280;2321;42.704;23.384;2023-11-19T11:43:03;95542.97;;;4.25;93.46
4617;BME280;2321;42.704;23.384;2023-11-19T11:45:36;95539.75;;;4.31;94.57
4617;BME280;2321;42.704;23.384;2023-11-19T11:48:09;95528.31;;;4.41;96.06
4617;BME280;2321;42.704;23.384;2023-11-19T11:50:47;95523.09;;;4.67;92.93
4617;BME280;2321;42.704;23.384;2023-11-19T11:53:19;95529.03;;;4.88;91.74
4617;BME280;2321;42.704;23.384;2023-11-19T11:55:57;95539.72;;;5.05;87.89
4617;BME280;2321;42.704;23.384;2023-11-19T11:58:32;95531.19;;;5.11;88.33
4617;BME280;2321;42.704;23.384;2023-11-19T12:01:00;95538.69;;;5.24;87.18
4617;BME280;2321;42.704;23.384;2023-11-19T12:03:28;95546.16;;;5.29;85.20
4617;BME280;2321;42.704;23.384;2023-11-19T12:05:55;95537.09;;;5.31;85.66
4617;BME280;2321;42.704;23.384;2023-11-19T12:08:25;95528.09;;;5.42;84.85
4617;BME280;2321;42.704;23.384;2023-11-19T12:10:53;95515.91;;;5.50;84.73
4617;BME280;2321;42.704;23.384;2023-11-19T12:13:23;95517.56;;;5.51;84.47
4617;BME280;2321;42.704;23.384;2023-11-19T12:16:08;95502.22;;;5.54;80.93
4617;BME280;2321;42.704;23.384;2023-11-19T12:18:35;95503.41;;;5.60;81.28
4617;BME280;2321;42.704;23.384;2023-11-19T12:21:01;95501.13;;;5.65;77.28
4617;BME280;2321;42.704;23.384;2023-11-19T12:23:32;95497.97;;;5.62;77.18
4617;BME280;2321;42.704;23.384;2023-11-19T12:26:07;95493.47;;;5.54;77.77
4617;BME280;2321;42.704;23.384;2023-11-19T12:28:57;95494.44;;;5.53;75.51
4617;BME280;2321;42.704;23.384;2023-11-19T12:31:30;95491.97;;;5.51;76.78
4617;BME280;2321;42.704;23.384;2023-11-19T12:34:20;95475.41;;;5.41;76.58
4617;BME280;2321;42.704;23.384;2023-11-19T12:36:52;95482.28;;;5.60;78.11
4617;BME280;2321;42.704;23.384;2023-11-19T12:39:27;95450.69;;;5.50;77.10
4617;BME280;2321;42.704;23.384;2023-11-19T12:44:53;95468.31;;;5.76;77.50
4617;BME280;2321;42.704;23.384;2023-11-19T12:47:21;95465.66;;;5.76;78.08
4617;BME280;2321;42.704;23.384;2023-11-19T12:52:40;95462.84;;;5.70;76.70
4617;BME280;2321;42.704;23.384;2023-11-19T12:57:57;95464.75;;;5.59;78.49
4617;BME280;2321;42.704;23.384;2023-11-19T13:00:33;95459.81;;;5.64;78.84
4617;BME280;2321;42.704;23.384;2023-11-19T13:05:36;95441.84;;;5.68;79.74
4617;BME280;2321;42.704;23.384;2023-11-19T13:10:50;95439.06;;;5.70;79.66
4617;BME280;2321;42.704;23.384;2023-11-19T13:13:21;95442.84;;;5.67;79.97
4617;BME280;2321;42.704;23.384;2023-11-19T13:15:49;95444.50;;;5.68;77.27
4617;BME280;2321;42.704;23.384;2023-11-19T13:18:19;95451.25;;;5.71;74.80
4617;BME280;2321;42.704;23.384;2023-11-19T13:20:50;95439.88;;;5.70;77.83
4617;BME280;2321;42.704;23.384;2023-11-19T13:23:18;95442.53;;;5.70;80.26
4617;BME280;2321;42.704;23.384;2023-11-19T13:28:28;95421.72;;;5.67;83.15
4617;BME280;2321;42.704;23.384;2023-11-19T13:31:02;95429.47;;;5.69;82.30
4617;BME280;2321;42.704;23.384;2023-11-19T13:33:30;95366.97;;;5.34;81.00
4617;BME280;2321;42.704;23.384;2023-11-19T13:35:59;95430.44;;;5.67;80.97